Time;durP1;ratioP1;P1;durP2;ratioP2;P2;SDS_P1;SDS_P2;PMS_P1;PMS_P2;Temp;Humidity;BMP_temperature;BMP_pressure;BME280_temperature;BME280_humidity;BME280_pressure;Samples;Min_cycle;Max_cycle;Signal;HPM_P1;HPM_P2
2022/03/09 16:01:22;;;;;;;18.38;13.90;;;24.40;31.30;;;;;;5090461;27;20308;-63
2022/03/09 16:03:48;;;;;;;19.00;13.50;;;24.40;32.40;;;;;;5088931;28;20029;-62
2022/03/09 16:06:14;;;;;;;20.13;13.95;;;23.60;31.90;;;;;;4732693;28;9999747;-62
2022/03/09 16:08:40;;;;;;;19.15;13.77;;;23.10;32.30;;;;;;5087030;28;20028;-62
2022/03/09 16:11:06;;;;;;;18.33;14.20;;;23.70;32.80;;;;;;5086279;28;20129;-61
2022/03/09 16:13:32;;;;;;;20.42;14.02;;;23.60;33.80;;;;;;5086447;28;20500;-62
2022/03/09 16:15:58;;;;;;;21.83;14.30;;;23.90;33.40;;;;;;5085173;28;20488;-63
2022/03/09 16:18:25;;;;;;;18.85;13.57;;;23.30;32.50;;;;;;5073871;28;20050;-63
2022/03/09 16:20:51;;;;;;;19.63;13.57;;;22.60;34.10;;;;;;5069050;28;20029;-62
2022/03/09 16:23:17;;;;;;;19.95;13.48;;;22.30;34.40;;;;;;5066997;28;20021;-62
2022/03/09 16:25:42;;;;;;;18.77;13.48;;;22.80;34.10;;;;;;5066264;28;20066;-63
2022/03/09 16:28:08;;;;;;;20.48;14.40;;;23.00;34.70;;;;;;5066548;28;20664;-63
2022/03/09 16:30:34;;;;;;;19.95;13.57;;;23.00;34.30;;;;;;5065172;28;20124;-63
2022/03/09 16:33:00;;;;;;;19.27;14.07;;;23.40;34.10;;;;;;5066250;28;20029;-63
2022/03/09 16:35:26;;;;;;;19.63;14.13;;;23.00;33.90;;;;;;5065973;28;20033;-62
2022/03/09 16:37:52;;;;;;;20.70;13.25;;;22.90;34.10;;;;;;5066147;28;20531;-63
2022/03/09 16:40:18;;;;;;;20.45;12.55;;;22.40;35.00;;;;;;5064876;28;20024;-61
2022/03/09 16:42:46;;;;;;;18.77;12.68;;;22.10;34.50;;;;;;5064944;28;20028;-60
2022/03/09 16:45:13;;;;;;;;;;;22.00;34.70;;;;;;5065104;28;20033;-63
2022/03/09 16:47:40;;;;;;;21.00;13.48;;;21.90;36.20;;;;;;5065040;28;19962;-63
2022/03/09 16:50:08;;;;;;;20.88;13.93;;;21.50;34.90;;;;;;5064781;28;20029;-63
2022/03/09 16:52:34;;;;;;;22.35;14.15;;;20.60;35.90;;;;;;5065990;28;20082;-65
2022/03/09 16:54:59;;;;;;;20.35;12.32;;;19.10;37.10;;;;;;5066283;28;20020;-64
2022/03/09 16:57:25;;;;;;;19.05;11.90;;;17.90;39.20;;;;;;5067776;28;20488;-64
2022/03/09 16:59:51;;;;;;;20.00;12.57;;;16.80;39.80;;;;;;5086486;28;20039;-63
2022/03/09 17:02:17;;;;;;;18.98;12.80;;;15.90;40.60;;;;;;5084925;28;20504;-65
2022/03/09 17:04:42;;;;;;;17.73;12.65;;;15.20;41.70;;;;;;5084781;28;20027;-65
2022/03/09 17:07:08;;;;;;;21.95;12.85;;;14.60;42.60;;;;;;5072866;28;20074;-63
2022/03/09 17:09:34;;;;;;;19.05;12.55;;;14.20;43.70;;;;;;5064456;28;20260;-63
2022/03/09 17:11:59;;;;;;;19.02;12.20;;;13.70;44.40;;;;;;5056592;28;20029;-62
2022/03/09 17:14:25;;;;;;;22.60;13.45;;;13.40;44.60;;;;;;5053496;28;20104;-63
2022/03/09 17:16:51;;;;;;;20.10;11.77;;;13.10;45.60;;;;;;5053056;28;20393;-60
2022/03/09 17:19:18;;;;;;;22.25;13.40;;;12.80;46.60;;;;;;5052270;28;20029;-63
2022/03/09 17:21:45;;;;;;;25.30;13.25;;;12.60;46.20;;;;;;5051055;28;20634;-60
2022/03/09 17:24:13;;;;;;;24.35;13.00;;;12.40;46.90;;;;;;5051759;28;20115;-63
2022/03/09 17:26:39;;;;;;;24.05;13.85;;;12.20;47.50;;;;;;5051060;28;20025;-63
2022/03/09 17:29:04;;;;;;;22.83;12.25;;;12.00;47.60;;;;;;5052651;28;20064;-61
2022/03/09 17:31:30;;;;;;;20.60;12.27;;;11.80;48.70;;;;;;5051610;28;20075;-63
2022/03/09 17:33:56;;;;;;;20.92;12.32;;;11.60;49.70;;;;;;5052641;28;20025;-63
2022/03/09 17:36:22;;;;;;;21.73;13.27;;;11.50;49.10;;;;;;5052708;28;20047;-64
2022/03/09 17:38:48;;;;;;;21.23;12.73;;;11.30;49.70;;;;;;5051214;28;20474;-62
2022/03/09 17:41:14;;;;;;;22.02;12.55;;;11.20;50.00;;;;;;5051710;28;20079;-66
2022/03/09 17:43:39;;;;;;;21.00;12.02;;;11.00;51.00;;;;;;5051761;28;20028;-64
2022/03/09 17:46:05;;;;;;;20.70;12.02;;;10.90;51.20;;;;;;5053055;28;20029;-63
2022/03/09 17:48:31;;;;;;;20.25;12.73;;;10.80;52.00;;;;;;5052684;28;20025;-62
2022/03/09 17:50:57;;;;;;;22.00;13.15;;;10.60;52.40;;;;;;5052227;28;20032;-64
2022/03/09 17:53:24;;;;;;;24.08;13.35;;;10.50;52.30;;;;;;5052426;28;20488;-64
2022/03/09 17:55:50;;;;;;;23.73;13.57;;;10.50;52.80;;;;;;5052572;28;20036;-62
2022/03/09 17:58:18;;;;;;;21.70;12.90;;;10.40;52.60;;;;;;5053649;28;20033;-59
2022/03/09 18:00:45;;;;;;;21.88;12.90;;;10.30;53.10;;;;;;5053740;28;20305;-64
2022/03/09 18:03:11;;;;;;;24.52;13.02;;;10.20;53.00;;;;;;5053423;28;20017;-61
2022/03/09 18:05:36;;;;;;;21.73;13.27;;;10.10;53.10;;;;;;5052297;28;20021;-62
2022/03/09 18:08:02;;;;;;;25.38;13.65;;;10.00;53.20;;;;;;5052427;28;20370;-60
2022/03/09 18:10:28;;;;;;;22.42;12.82;;;9.90;54.40;;;;;;5052784;28;20056;-63
2022/03/09 18:12:53;;;;;;;23.02;12.80;;;9.80;54.30;;;;;;5053534;28;20082;-58
2022/03/09 18:15:21;;;;;;;21.38;14.00;;;9.70;54.40;;;;;;5052568;28;20397;-63
2022/03/09 18:17:47;;;;;;;23.30;12.93;;;9.60;54.50;;;;;;5053418;28;20032;-61
2022/03/09 18:20:15;;;;;;;22.48;12.75;;;9.60;55.20;;;;;;5053453;28;20527;-64
2022/03/09 18:22:40;;;;;;;21.15;13.05;;;9.50;55.20;;;;;;5052736;28;20033;-64
2022/03/09 18:25:15;;;;;;;21.81;12.94;;;9.40;55.40;;;;;;5000957;28;10000818;-60
2022/03/09 18:27:41;;;;;;;22.48;12.80;;;9.40;55.30;;;;;;5050978;28;20293;-58
2022/03/09 18:30:07;;;;;;;22.80;13.63;;;9.30;55.80;;;;;;5050606;28;20174;-61
2022/03/09 18:32:32;;;;;;;22.73;12.95;;;9.20;56.00;;;;;;5049213;28;20078;-56
2022/03/09 18:34:58;;;;;;;19.63;12.30;;;9.20;56.00;;;;;;5051634;28;20537;-56
2022/03/09 18:37:24;;;;;;;21.30;11.82;;;9.10;56.20;;;;;;5048851;28;20139;-60
2022/03/09 18:39:50;;;;;;;20.98;13.10;;;9.00;56.30;;;;;;5050142;28;20529;-58
2022/03/09 18:42:15;;;;;;;23.77;13.20;;;9.00;56.80;;;;;;5048946;28;20043;-55
2022/03/09 18:44:41;;;;;;;25.25;14.00;;;8.90;57.50;;;;;;5050915;28;20035;-68
2022/03/09 18:47:08;;;;;;;23.25;12.82;;;8.90;57.20;;;;;;5051617;28;20435;-66
2022/03/09 18:49:34;;;;;;;22.75;13.02;;;8.80;57.70;;;;;;5050429;28;20083;-66
2022/03/09 18:51:59;;;;;;;21.48;12.73;;;8.70;57.40;;;;;;5049236;28;20037;-66
2022/03/09 18:54:25;;;;;;;26.48;13.55;;;8.70;58.90;;;;;;5049923;28;20481;-66
2022/03/09 18:56:50;;;;;;;26.08;14.70;;;8.60;57.80;;;;;;5049969;28;20025;-66
2022/03/09 18:59:16;;;;;;;22.98;13.77;;;8.60;58.10;;;;;;5051036;28;20060;-67
2022/03/09 19:01:41;;;;;;;23.02;13.00;;;8.50;58.30;;;;;;5053348;28;20020;-67
2022/03/09 19:04:09;;;;;;;25.33;13.07;;;8.40;58.40;;;;;;4704123;28;10000208;-68
2022/03/09 19:06:35;;;;;;;24.83;14.45;;;8.30;58.70;;;;;;5050309;28;20282;-67
2022/03/09 19:09:00;;;;;;;24.02;13.60;;;8.30;59.70;;;;;;5049743;28;20021;-66
2022/03/09 19:11:26;;;;;;;26.70;14.23;;;8.20;59.50;;;;;;5050925;28;20020;-66
2022/03/09 19:13:51;;;;;;;23.75;13.55;;;8.20;59.70;;;;;;5050579;28;20036;-67
2022/03/09 19:16:17;;;;;;;26.20;13.45;;;8.10;59.50;;;;;;5051295;28;20021;-68
2022/03/09 19:18:43;;;;;;;22.05;14.63;;;8.00;60.30;;;;;;5050585;28;20070;-68
2022/03/09 19:21:08;;;;;;;22.50;12.85;;;7.90;60.10;;;;;;5049219;28;20078;-67
2022/03/09 19:23:34;;;;;;;150.10;98.28;;;7.90;60.00;;;;;;5050808;28;20453;-65
2022/03/09 19:26:00;;;;;;;57.42;41.75;;;7.80;60.00;;;;;;5065237;28;20532;-65
2022/03/09 19:28:25;;;;;;;21.67;13.30;;;7.70;60.50;;;;;;5048562;28;20021;-65
2022/03/09 19:30:51;;;;;;;32.63;16.48;;;7.70;60.40;;;;;;5049767;28;20047;-63
2022/03/09 19:33:16;;;;;;;24.48;13.77;;;7.70;60.20;;;;;;5049658;28;20033;-62
2022/03/09 19:35:42;;;;;;;24.30;14.30;;;7.60;60.90;;;;;;5050159;28;20098;-63
2022/03/09 19:38:11;;;;;;;25.95;13.63;;;7.60;60.40;;;;;;5056972;28;20072;-63
2022/03/09 19:40:37;;;;;;;23.52;13.18;;;7.60;60.40;;;;;;5067686;28;20042;-63
2022/03/09 19:43:03;;;;;;;25.90;14.00;;;7.50;60.60;;;;;;5069733;28;20403;-63
2022/03/09 19:45:29;;;;;;;25.98;14.38;;;7.40;60.70;;;;;;5069800;28;20499;-64
2022/03/09 19:47:54;;;;;;;24.15;13.40;;;7.40;60.70;;;;;;5068511;28;20496;-62
2022/03/09 19:50:20;;;;;;;23.90;14.57;;;7.40;60.70;;;;;;5068088;28;20119;-61
2022/03/09 19:52:47;;;;;;;24.75;13.73;;;7.40;61.20;;;;;;5068142;28;20070;-62
2022/03/09 19:55:15;;;;;;;25.17;14.27;;;7.40;61.40;;;;;;5068086;28;20035;-63
2022/03/09 19:57:41;;;;;;;23.60;14.25;;;7.30;60.50;;;;;;5064085;28;20055;-62
2022/03/09 20:00:09;;;;;;;21.90;12.35;;;7.30;60.60;;;;;;5053334;28;20029;-62
2022/03/09 20:02:35;;;;;;;20.35;11.82;;;7.30;60.60;;;;;;5047880;28;20032;-61
2022/03/09 20:05:04;;;;;;;22.25;13.05;;;7.20;60.20;;;;;;5047742;28;20824;-60
2022/03/09 20:07:30;;;;;;;19.83;11.73;;;7.20;59.80;;;;;;5048996;28;20036;-62
2022/03/09 20:09:56;;;;;;;21.45;12.50;;;7.20;60.10;;;;;;5064171;28;20022;-63
2022/03/09 20:12:21;;;;;;;23.17;12.60;;;7.10;60.00;;;;;;5049500;28;20036;-63
2022/03/09 20:14:47;;;;;;;26.08;13.30;;;7.20;59.50;;;;;;5049469;28;20040;-62
2022/03/09 20:17:12;;;;;;;23.05;13.18;;;7.30;59.20;;;;;;5048780;28;20033;-62
2022/03/09 20:19:38;;;;;;;23.55;12.15;;;7.50;58.80;;;;;;5048752;28;20393;-62
2022/03/09 20:22:04;;;;;;;24.80;12.32;;;7.60;57.90;;;;;;5049117;28;20036;-61
2022/03/09 20:24:30;;;;;;;22.10;11.40;;;7.70;57.70;;;;;;5057219;28;20032;-63
2022/03/09 20:26:58;;;;;;;24.23;12.68;;;7.60;58.00;;;;;;5061941;28;20035;-63
2022/03/09 20:29:25;;;;;;;21.63;12.20;;;7.50;58.00;;;;;;5069388;28;20043;-62
2022/03/09 20:31:51;;;;;;;24.20;12.40;;;7.50;57.70;;;;;;5069145;28;20408;-60
2022/03/09 20:34:16;;;;;;;23.83;13.15;;;7.60;57.90;;;;;;5067851;28;20028;-60
2022/03/09 20:36:42;;;;;;;22.08;12.88;;;7.50;57.30;;;;;;5067516;28;20028;-62
2022/03/09 20:39:08;;;;;;;22.63;13.02;;;7.40;58.00;;;;;;5069111;28;20454;-63
2022/03/09 20:41:33;;;;;;;25.50;13.63;;;7.20;58.20;;;;;;5067845;28;20029;-61
2022/03/09 20:43:59;;;;;;;23.55;13.50;;;7.10;58.30;;;;;;5067939;28;20111;-64
2022/03/09 20:46:25;;;;;;;23.75;13.05;;;6.90;59.40;;;;;;5069509;28;20029;-63
2022/03/09 20:48:53;;;;;;;25.77;14.48;;;6.80;60.40;;;;;;5070427;28;20071;-63
2022/03/09 20:51:19;;;;;;;25.52;14.52;;;6.70;60.20;;;;;;5063545;28;20409;-63
2022/03/09 20:53:45;;;;;;;22.70;13.77;;;6.60;60.10;;;;;;5053845;28;20040;-64
2022/03/09 20:56:12;;;;;;;25.83;14.18;;;6.50;60.10;;;;;;5054037;28;20025;-61
2022/03/09 20:58:37;;;;;;;23.77;13.75;;;6.40;61.10;;;;;;5068457;28;20052;-61
2022/03/09 21:01:03;;;;;;;22.33;14.68;;;6.30;61.90;;;;;;5074852;28;20079;-63
2022/03/09 21:03:29;;;;;;;23.13;13.45;;;6.20;61.80;;;;;;5075196;28;20036;-62
2022/03/09 21:05:54;;;;;;;23.00;12.73;;;6.20;61.40;;;;;;5073748;28;20028;-63
2022/03/09 21:08:27;;;;;;;21.95;13.57;;;6.10;61.80;;;;;;4721932;28;10000523;-62
2022/03/09 21:10:53;;;;;;;22.05;12.48;;;6.00;63.20;;;;;;5072113;28;20031;-59
2022/03/09 21:13:19;;;;;;;22.95;14.25;;;6.00;62.50;;;;;;5072312;28;20029;-61
2022/03/09 21:15:45;;;;;;;25.02;14.60;;;5.90;63.00;;;;;;5058572;28;20044;-58
2022/03/09 21:18:11;;;;;;;25.77;14.40;;;5.80;62.90;;;;;;5052257;28;20021;-58
2022/03/09 21:20:37;;;;;;;24.17;14.85;;;5.80;63.10;;;;;;5051826;28;20411;-63
2022/03/09 21:23:03;;;;;;;22.17;13.30;;;5.80;62.30;;;;;;5051895;28;20643;-62
2022/03/09 21:25:29;;;;;;;22.63;12.25;;;5.80;61.90;;;;;;5051642;28;20021;-63
2022/03/09 21:27:55;;;;;;;22.63;12.93;;;5.70;62.20;;;;;;5050801;28;20128;-62
2022/03/09 21:30:22;;;;;;;23.08;12.82;;;5.70;62.30;;;;;;5051994;28;20124;-62
2022/03/09 21:32:48;;;;;;;25.52;12.60;;;5.60;62.40;;;;;;5050312;28;20033;-62
2022/03/09 21:35:17;;;;;;;23.33;12.70;;;5.60;62.50;;;;;;5051427;28;20025;-60
2022/03/09 21:37:43;;;;;;;24.55;13.73;;;5.50;62.70;;;;;;5051636;28;20627;-63
2022/03/09 21:40:10;;;;;;;23.10;14.73;;;5.50;63.40;;;;;;5049505;28;20033;-62
2022/03/09 21:42:36;;;;;;;22.75;14.07;;;5.40;63.10;;;;;;5051524;28;20025;-63
2022/03/09 21:45:03;;;;;;;23.55;14.20;;;5.40;63.40;;;;;;5051595;28;20029;-61
2022/03/09 21:47:28;;;;;;;22.65;13.15;;;5.30;64.10;;;;;;5051350;28;20460;-60
2022/03/09 21:49:54;;;;;;;24.05;13.18;;;5.30;64.50;;;;;;5051657;28;20033;-61
2022/03/09 21:52:20;;;;;;;24.55;13.05;;;5.30;64.60;;;;;;5051515;28;20063;-63
2022/03/09 21:54:46;;;;;;;25.00;13.40;;;5.30;64.10;;;;;;5051532;28;20035;-63
2022/03/09 21:57:13;;;;;;;21.27;13.23;;;5.20;64.30;;;;;;5052044;28;20116;-62
2022/03/09 21:59:39;;;;;;;21.80;13.00;;;5.20;64.40;;;;;;5071153;28;20024;-62
2022/03/09 22:02:06;;;;;;;26.13;15.07;;;5.20;63.70;;;;;;5069559;28;20037;-60
2022/03/09 22:04:32;;;;;;;22.90;12.50;;;5.20;63.50;;;;;;5071260;28;20396;-60
2022/03/09 22:06:58;;;;;;;21.98;14.10;;;5.20;63.90;;;;;;5069709;28;20024;-63
2022/03/09 22:09:23;;;;;;;26.50;13.88;;;5.10;64.90;;;;;;5069885;28;20460;-61
2022/03/09 22:11:50;;;;;;;24.75;13.45;;;5.10;64.40;;;;;;5070823;28;20052;-62
2022/03/09 22:14:16;;;;;;;26.48;13.70;;;5.10;64.10;;;;;;5069951;28;20021;-62
2022/03/09 22:16:41;;;;;;;25.25;13.63;;;5.10;64.60;;;;;;5069679;28;20028;-62
2022/03/09 22:19:07;;;;;;;24.95;13.20;;;5.00;63.50;;;;;;5070566;28;20718;-63
2022/03/09 22:21:33;;;;;;;30.20;15.60;;;5.00;63.90;;;;;;5070673;28;20052;-61
2022/03/09 22:24:06;;;;;;;23.48;14.25;;;;;;;;;;5064402;28;20096;-64
2022/03/09 22:26:35;;;;;;;27.73;14.25;;;;;;;;;;5050723;28;20021;-63
2022/03/09 22:29:02;;;;;;;21.33;12.98;;;;;;;;;;5050427;28;20025;-62
2022/03/09 22:31:28;;;;;;;26.50;12.48;;;;;;;;;;5050116;28;20025;-59
2022/03/09 22:33:54;;;;;;;22.50;12.68;;;;;;;;;;5050863;28;20053;-62
2022/03/09 22:36:21;;;;;;;25.38;12.98;;;5.00;64.10;;;;;;5049232;28;20258;-62
2022/03/09 22:38:46;;;;;;;23.42;13.38;;;4.80;63.60;;;;;;5053266;28;20413;-60
2022/03/09 22:41:12;;;;;;;21.63;11.65;;;4.80;62.80;;;;;;5068806;28;20048;-60
2022/03/09 22:43:37;;;;;;;30.17;13.90;;;4.80;64.10;;;;;;5069320;28;20499;-62
2022/03/09 22:46:04;;;;;;;21.92;11.95;;;4.70;63.20;;;;;;5070446;28;20095;-61
2022/03/09 22:48:30;;;;;;;22.25;13.38;;;4.70;62.80;;;;;;5070662;28;20117;-64
2022/03/09 22:50:56;;;;;;;22.50;12.57;;;4.80;63.30;;;;;;5067665;28;20455;-61
2022/03/09 22:53:21;;;;;;;23.85;12.70;;;4.80;61.70;;;;;;5071151;28;20017;-61
2022/03/09 22:55:47;;;;;;;26.13;13.68;;;4.70;61.40;;;;;;5072978;28;20436;-63
2022/03/09 22:58:13;;;;;;;22.85;12.88;;;4.80;61.50;;;;;;5061754;28;20036;-64
2022/03/09 23:00:41;;;;;;;23.45;12.40;;;4.80;62.40;;;;;;5052461;28;20040;-61
2022/03/09 23:03:12;;;;;;;21.35;10.82;;;4.80;62.00;;;;;;5052833;28;20029;-63
2022/03/09 23:05:38;;;;;;;24.25;11.77;;;4.70;62.20;;;;;;5052692;28;20509;-62
2022/03/09 23:08:10;;;;;;;21.90;13.10;;;4.70;62.90;;;;;;5052447;28;20071;-61
2022/03/09 23:10:37;;;;;;;19.75;12.02;;;4.70;63.40;;;;;;5052039;28;20043;-62
2022/03/09 23:13:04;;;;;;;21.73;11.65;;;4.60;63.70;;;;;;5052882;28;20021;-61
2022/03/09 23:15:31;;;;;;;27.30;13.48;;;4.60;64.10;;;;;;5052499;28;20049;-62
2022/03/09 23:17:57;;;;;;;20.98;13.45;;;4.60;64.40;;;;;;5052309;28;20536;-60
2022/03/09 23:20:23;;;;;;;28.33;13.55;;;4.60;63.90;;;;;;5060812;28;20115;-62
2022/03/09 23:22:50;;;;;;;22.63;12.85;;;4.50;63.80;;;;;;5065812;28;20021;-62
2022/03/09 23:25:17;;;;;;;22.55;12.27;;;4.50;64.30;;;;;;5060681;28;20025;-61
2022/03/09 23:27:43;;;;;;;23.85;11.80;;;4.50;64.50;;;;;;5061311;28;20021;-62
2022/03/09 23:30:10;;;;;;;23.05;12.30;;;4.40;65.00;;;;;;5054947;28;20115;-61
2022/03/09 23:32:35;;;;;;;21.85;13.20;;;4.40;65.60;;;;;;5061521;28;20058;-60
2022/03/09 23:35:01;;;;;;;22.73;13.02;;;4.40;66.20;;;;;;5062878;28;20060;-64
2022/03/09 23:37:27;;;;;;;21.38;12.85;;;4.30;67.20;;;;;;5051955;28;20021;-60
2022/03/09 23:39:52;;;;;;;21.45;12.13;;;4.30;67.20;;;;;;5063969;28;20139;-62
2022/03/09 23:42:18;;;;;;;21.98;12.77;;;4.20;66.60;;;;;;5072224;28;20044;-61
2022/03/09 23:44:44;;;;;;;27.05;13.52;;;4.20;68.30;;;;;;5071480;28;20029;-60
2022/03/09 23:47:10;;;;;;;25.85;11.95;;;4.10;68.20;;;;;;5070317;28;20161;-59
2022/03/09 23:49:35;;;;;;;22.23;12.63;;;4.10;68.50;;;;;;5050208;28;20050;-60
2022/03/09 23:52:01;;;;;;;23.00;13.57;;;4.00;68.80;;;;;;5051594;28;20028;-59
2022/03/09 23:54:26;;;;;;;23.20;14.68;;;4.00;68.60;;;;;;5050090;28;20032;-57
2022/03/09 23:56:52;;;;;;;23.42;13.52;;;4.00;68.60;;;;;;5051798;28;20489;-58
2022/03/09 23:59:18;;;;;;;23.83;12.80;;;3.90;68.30;;;;;;5051185;28;20044;-57
